sensor_id;sensor_type;location;lat;lon;timestamp;pressure;altitude;pressure_sealevel;temperature;humidity
46714;BME280;32445;51.376;10.874;2022-08-03T00:00:45;99524.19;;;23.01;39.46
46714;BME280;32445;51.376;10.874;2022-08-03T00:03:46;99522.88;;;22.95;39.49
46714;BME280;32445;51.376;10.874;2022-08-03T00:06:46;99519.75;;;22.90;39.51
46714;BME280;32445;51.376;10.874;2022-08-03T00:09:47;99522.75;;;22.85;39.77
46714;BME280;32445;51.376;10.874;2022-08-03T00:12:47;99517.94;;;22.79;39.62
46714;BME280;32445;51.376;10.874;2022-08-03T00:15:47;99515.66;;;22.74;40.05
46714;BME280;32445;51.376;10.874;2022-08-03T00:18:48;99517.78;;;22.69;40.31
46714;BME280;32445;51.376;10.874;2022-08-03T00:21:48;99514.66;;;22.64;40.13
46714;BME280;32445;51.376;10.874;2022-08-03T00:24:48;99513.22;;;22.60;40.14
46714;BME280;32445;51.376;10.874;2022-08-03T00:27:49;99507.41;;;22.55;40.51
46714;BME280;32445;51.376;10.874;2022-08-03T00:30:49;99510.41;;;22.50;40.59
46714;BME280;32445;51.376;10.874;2022-08-03T00:33:49;99508.97;;;22.46;40.58
46714;BME280;32445;51.376;10.874;2022-08-03T00:36:50;99510.25;;;22.40;40.69
46714;BME280;32445;51.376;10.874;2022-08-03T00:39:50;99507.16;;;22.35;40.24
46714;BME280;32445;51.376;10.874;2022-08-03T00:42:57;99507.44;;;22.30;40.62
46714;BME280;32445;51.376;10.874;2022-08-03T00:45:57;99512.25;;;22.25;40.96
46714;BME280;32445;51.376;10.874;2022-08-03T00:48:58;99512.47;;;22.22;40.94
46714;BME280;32445;51.376;10.874;2022-08-03T00:51:59;99506.69;;;22.17;41.21
46714;BME280;32445;51.376;10.874;2022-08-03T00:55:00;99504.38;;;22.12;41.47
46714;BME280;32445;51.376;10.874;2022-08-03T00:58:02;99510.84;;;22.08;41.48
46714;BME280;32445;51.376;10.874;2022-08-03T01:01:05;99505.03;;;22.03;41.88
46714;BME280;32445;51.376;10.874;2022-08-03T01:04:06;99512.38;;;22.00;41.54
46714;BME280;32445;51.376;10.874;2022-08-03T01:20:11;99508.78;;;21.76;42.02
46714;BME280;32445;51.376;10.874;2022-08-03T01:26:59;99499.81;;;21.66;42.00
46714;BME280;32445;51.376;10.874;2022-08-03T01:30:07;99496.44;;;21.64;42.22
46714;BME280;32445;51.376;10.874;2022-08-03T01:33:15;99494.97;;;21.60;41.72
46714;BME280;32445;51.376;10.874;2022-08-03T01:36:21;99500.50;;;21.57;42.92
46714;BME280;32445;51.376;10.874;2022-08-03T01:39:24;99497.22;;;21.53;42.59
46714;BME280;32445;51.376;10.874;2022-08-03T01:42:26;99496.56;;;21.50;42.69
46714;BME280;32445;51.376;10.874;2022-08-03T01:45:28;99495.09;;;21.46;42.13
46714;BME280;32445;51.376;10.874;2022-08-03T01:48:30;99491.00;;;21.41;42.88
46714;BME280;32445;51.376;10.874;2022-08-03T01:51:32;99493.84;;;21.38;42.97
46714;BME280;32445;51.376;10.874;2022-08-03T01:54:35;99498.59;;;21.33;42.88
46714;BME280;32445;51.376;10.874;2022-08-03T01:57:38;99495.25;;;21.31;42.48
46714;BME280;32445;51.376;10.874;2022-08-03T02:00:40;99497.25;;;21.27;42.64
46714;BME280;32445;51.376;10.874;2022-08-03T02:03:42;99497.47;;;21.24;43.15
46714;BME280;32445;51.376;10.874;2022-08-03T02:06:45;99502.13;;;21.21;42.99
46714;BME280;32445;51.376;10.874;2022-08-03T02:09:50;99504.13;;;21.17;43.01
46714;BME280;32445;51.376;10.874;2022-08-03T02:12:52;99500.88;;;21.14;43.08
46714;BME280;32445;51.376;10.874;2022-08-03T02:15:53;99496.66;;;21.11;42.86
46714;BME280;32445;51.376;10.874;2022-08-03T02:18:56;99504.03;;;21.06;43.06
46714;BME280;32445;51.376;10.874;2022-08-03T02:21:57;99502.56;;;21.02;42.82
46714;BME280;32445;51.376;10.874;2022-08-03T02:24:58;99499.31;;;20.98;42.95
46714;BME280;32445;51.376;10.874;2022-08-03T02:28:07;99496.88;;;20.95;43.22
46714;BME280;32445;51.376;10.874;2022-08-03T02:31:16;99497.22;;;20.90;43.46
46714;BME280;32445;51.376;10.874;2022-08-03T02:34:20;99499.94;;;20.89;43.06
46714;BME280;32445;51.376;10.874;2022-08-03T02:37:25;99497.63;;;20.84;43.42
46714;BME280;32445;51.376;10.874;2022-08-03T02:40:27;99501.31;;;20.82;43.23
46714;BME280;32445;51.376;10.874;2022-08-03T02:43:29;99504.16;;;20.79;43.18
46714;BME280;32445;51.376;10.874;2022-08-03T02:46:34;99501.00;;;20.73;43.72
46714;BME280;32445;51.376;10.874;2022-08-03T02:49:37;99502.06;;;20.71;43.63
46714;BME280;32445;51.376;10.874;2022-08-03T02:52:41;99490.84;;;20.67;43.47
46714;BME280;32445;51.376;10.874;2022-08-03T02:55:45;99492.84;;;20.64;43.57
46714;BME280;32445;51.376;10.874;2022-08-03T02:58:48;99491.25;;;20.61;43.72
46714;BME280;32445;51.376;10.874;2022-08-03T03:01:49;99491.47;;;20.58;43.93
46714;BME280;32445;51.376;10.874;2022-08-03T03:04:51;99490.81;;;20.54;43.60
46714;BME280;32445;51.376;10.874;2022-08-03T03:07:53;99485.75;;;20.51;43.84
46714;BME280;32445;51.376;10.874;2022-08-03T03:10:59;99499.16;;;20.48;44.30
46714;BME280;32445;51.376;10.874;2022-08-03T03:14:01;99490.63;;;20.45;43.87
46714;BME280;32445;51.376;10.874;2022-08-03T03:17:02;99486.38;;;20.42;44.02
46714;BME280;32445;51.376;10.874;2022-08-03T03:20:04;99487.53;;;20.38;43.94
46714;BME280;32445;51.376;10.874;2022-08-03T03:23:07;99484.16;;;20.36;44.13
46714;BME280;32445;51.376;10.874;2022-08-03T03:26:08;99486.16;;;20.32;44.19
46714;BME280;32445;51.376;10.874;2022-08-03T03:29:08;99481.94;;;20.30;44.04
46714;BME280;32445;51.376;10.874;2022-08-03T03:32:09;99484.78;;;20.27;43.96
46714;BME280;32445;51.376;10.874;2022-08-03T03:35:10;99485.81;;;20.24;44.50
46714;BME280;32445;51.376;10.874;2022-08-03T03:38:12;99492.13;;;20.21;44.98
46714;BME280;32445;51.376;10.874;2022-08-03T03:41:13;99493.19;;;20.19;44.46
46714;BME280;32445;51.376;10.874;2022-08-03T03:44:13;99491.63;;;20.16;44.18
46714;BME280;32445;51.376;10.874;2022-08-03T03:47:14;99487.38;;;20.14;44.23
46714;BME280;32445;51.376;10.874;2022-08-03T03:50:16;99488.41;;;20.11;44.66
46714;BME280;32445;51.376;10.874;2022-08-03T03:53:17;99500.00;;;20.09;44.42
46714;BME280;32445;51.376;10.874;2022-08-03T03:56:18;99491.47;;;20.05;44.85
46714;BME280;32445;51.376;10.874;2022-08-03T03:59:18;99495.16;;;20.02;44.83
46714;BME280;32445;51.376;10.874;2022-08-03T04:02:19;99500.50;;;20.01;44.89
46714;BME280;32445;51.376;10.874;2022-08-03T04:05:19;99491.03;;;19.98;44.58
46714;BME280;32445;51.376;10.874;2022-08-03T04:08:39;99490.38;;;19.95;44.71
46714;BME280;32445;51.376;10.874;2022-08-03T04:12:18;99489.63;;;19.93;45.19
46714;BME280;32445;51.376;10.874;2022-08-03T04:15:20;99493.31;;;19.90;45.19
46714;BME280;32445;51.376;10.874;2022-08-03T04:18:22;99502.16;;;19.89;45.14
46714;BME280;32445;51.376;10.874;2022-08-03T04:21:24;99506.69;;;19.87;45.62
46714;BME280;32445;51.376;10.874;2022-08-03T04:24:29;99507.75;;;19.84;45.74
46714;BME280;32445;51.376;10.874;2022-08-03T04:27:35;99502.53;;;19.83;45.77
46714;BME280;32445;51.376;10.874;2022-08-03T04:30:37;99506.16;;;19.82;45.62
46714;BME280;32445;51.376;10.874;2022-08-03T04:33:40;99507.09;;;19.81;45.54
46714;BME280;32445;51.376;10.874;2022-08-03T04:36:48;99507.19;;;19.79;46.02
46714;BME280;32445;51.376;10.874;2022-08-03T04:39:53;99514.25;;;19.79;46.24
46714;BME280;32445;51.376;10.874;2022-08-03T04:42:57;99522.22;;;19.77;45.98
46714;BME280;32445;51.376;10.874;2022-08-03T04:45:58;99517.72;;;19.79;44.72
46714;BME280;32445;51.376;10.874;2022-08-03T04:49:00;99514.25;;;19.79;45.49
46714;BME280;32445;51.376;10.874;2022-08-03T04:52:00;99513.44;;;19.77;45.53
46714;BME280;32445;51.376;10.874;2022-08-03T04:55:01;99517.03;;;19.76;46.00
46714;BME280;32445;51.376;10.874;2022-08-03T04:58:02;99527.66;;;19.74;46.16
46714;BME280;32445;51.376;10.874;2022-08-03T05:01:03;99520.53;;;19.76;44.68
46714;BME280;32445;51.376;10.874;2022-08-03T05:04:03;99524.84;;;19.77;45.75
46714;BME280;32445;51.376;10.874;2022-08-03T05:07:04;99518.91;;;19.74;45.93
46714;BME280;32445;51.376;10.874;2022-08-03T05:10:06;99522.50;;;19.73;46.46
46714;BME280;32445;51.376;10.874;2022-08-03T05:13:07;99527.84;;;19.71;46.79
46714;BME280;32445;51.376;10.874;2022-08-03T05:16:11;99523.47;;;19.71;46.70
46714;BME280;32445;51.376;10.874;2022-08-03T05:19:12;99520.91;;;19.70;46.64
46714;BME280;32445;51.376;10.874;2022-08-03T05:22:13;99523.47;;;19.71;46.67
46714;BME280;32445;51.376;10.874;2022-08-03T05:25:13;99523.47;;;19.71;46.45
46714;BME280;32445;51.376;10.874;2022-08-03T05:28:13;99522.50;;;19.73;46.79
46714;BME280;32445;51.376;10.874;2022-08-03T05:31:14;99525.03;;;19.74;47.20
46714;BME280;32445;51.376;10.874;2022-08-03T05:34:14;99524.09;;;19.75;47.09
46714;BME280;32445;51.376;10.874;2022-08-03T05:37:14;99528.31;;;19.78;46.56
46714;BME280;32445;51.376;10.874;2022-08-03T05:40:15;99516.88;;;19.79;46.53
46714;BME280;32445;51.376;10.874;2022-08-03T05:43:15;99521.09;;;19.81;47.05
46714;BME280;32445;51.376;10.874;2022-08-03T05:46:16;99512.16;;;19.84;47.03
46714;BME280;32445;51.376;10.874;2022-08-03T05:49:17;99522.59;;;19.85;47.14
46714;BME280;32445;51.376;10.874;2022-08-03T05:52:17;99517.09;;;19.88;47.44
46714;BME280;32445;51.376;10.874;2022-08-03T05:55:17;99517.00;;;19.90;47.42
46714;BME280;32445;51.376;10.874;2022-08-03T05:58:18;99513.34;;;19.93;47.49
46714;BME280;32445;51.376;10.874;2022-08-03T06:01:19;99515.78;;;19.96;47.63
46714;BME280;32445;51.376;10.874;2022-08-03T06:04:22;99522.72;;;19.97;47.81
46714;BME280;32445;51.376;10.874;2022-08-03T06:07:23;99519.91;;;20.00;47.59
46714;BME280;32445;51.376;10.874;2022-08-03T06:10:23;99513.59;;;20.02;47.63
46714;BME280;32445;51.376;10.874;2022-08-03T06:13:24;99516.97;;;20.04;47.30
46714;BME280;32445;51.376;10.874;2022-08-03T06:16:24;99515.91;;;20.07;47.46
46714;BME280;32445;51.376;10.874;2022-08-03T06:19:24;99514.03;;;20.09;47.41
46714;BME280;32445;51.376;10.874;2022-08-03T06:22:26;99516.47;;;20.12;47.87
46714;BME280;32445;51.376;10.874;2022-08-03T06:25:27;99513.72;;;20.14;47.99
46714;BME280;32445;51.376;10.874;2022-08-03T06:28:27;99511.94;;;20.14;47.99
46714;BME280;32445;51.376;10.874;2022-08-03T06:31:28;99519.72;;;20.16;48.03
46714;BME280;32445;51.376;10.874;2022-08-03T06:34:29;99520.50;;;20.18;48.38
46714;BME280;32445;51.376;10.874;2022-08-03T06:37:29;99521.97;;;20.22;48.63
46714;BME280;32445;51.376;10.874;2022-08-03T06:40:29;99517.34;;;20.26;49.03
46714;BME280;32445;51.376;10.874;2022-08-03T06:43:33;99513.56;;;20.30;49.21
46714;BME280;32445;51.376;10.874;2022-08-03T06:46:36;99518.53;;;20.34;49.30
46714;BME280;32445;51.376;10.874;2022-08-03T06:49:36;99523.41;;;20.40;48.76
46714;BME280;32445;51.376;10.874;2022-08-03T06:52:37;99526.66;;;20.44;48.43
46714;BME280;32445;51.376;10.874;2022-08-03T06:55:37;99524.47;;;20.51;48.41
46714;BME280;32445;51.376;10.874;2022-08-03T06:58:38;99518.78;;;20.57;48.56
46714;BME280;32445;51.376;10.874;2022-08-03T07:01:38;99524.50;;;20.64;48.68
46714;BME280;32445;51.376;10.874;2022-08-03T07:04:38;99529.25;;;20.71;48.34
46714;BME280;32445;51.376;10.874;2022-08-03T07:07:39;99516.41;;;20.80;48.64
46714;BME280;32445;51.376;10.874;2022-08-03T07:10:40;99522.13;;;20.86;48.57
46714;BME280;32445;51.376;10.874;2022-08-03T07:13:40;99522.31;;;20.96;49.42
46714;BME280;32445;51.376;10.874;2022-08-03T07:16:41;99523.59;;;21.03;49.20
46714;BME280;32445;51.376;10.874;2022-08-03T07:19:41;99529.91;;;21.14;48.89
46714;BME280;32445;51.376;10.874;2022-08-03T07:22:43;99518.69;;;21.23;48.63
46714;BME280;32445;51.376;10.874;2022-08-03T07:25:44;99519.84;;;21.32;49.04
46714;BME280;32445;51.376;10.874;2022-08-03T07:28:44;99520.91;;;21.42;49.00
46714;BME280;32445;51.376;10.874;2022-08-03T07:31:44;99520.97;;;21.53;48.35
46714;BME280;32445;51.376;10.874;2022-08-03T07:34:45;99511.47;;;21.64;48.04
46714;BME280;32445;51.376;10.874;2022-08-03T07:37:45;99512.47;;;21.74;47.93
46714;BME280;32445;51.376;10.874;2022-08-03T07:40:45;99516.03;;;21.86;47.16
46714;BME280;32445;51.376;10.874;2022-08-03T07:43:46;99509.97;;;21.97;46.70
46714;BME280;32445;51.376;10.874;2022-08-03T07:46:46;99510.84;;;22.08;47.10
46714;BME280;32445;51.376;10.874;2022-08-03T07:49:46;99506.44;;;22.20;46.78
46714;BME280;32445;51.376;10.874;2022-08-03T07:52:47;99501.94;;;22.34;47.19
46714;BME280;32445;51.376;10.874;2022-08-03T07:55:48;99504.41;;;22.48;45.99
46714;BME280;32445;51.376;10.874;2022-08-03T07:58:49;99507.06;;;22.59;44.97
46714;BME280;32445;51.376;10.874;2022-08-03T08:01:49;99505.31;;;22.71;43.89
46714;BME280;32445;51.376;10.874;2022-08-03T08:04:52;99506.03;;;22.85;43.36
46714;BME280;32445;51.376;10.874;2022-08-03T08:07:52;99502.44;;;22.97;43.33
46714;BME280;32445;51.376;10.874;2022-08-03T08:10:53;99502.31;;;23.10;42.38
46714;BME280;32445;51.376;10.874;2022-08-03T08:13:53;99502.94;;;23.25;42.58
46714;BME280;32445;51.376;10.874;2022-08-03T08:16:54;99496.56;;;23.39;43.07
46714;BME280;32445;51.376;10.874;2022-08-03T08:19:54;99495.56;;;23.51;42.26
46714;BME280;32445;51.376;10.874;2022-08-03T08:23:02;99495.53;;;23.62;41.10
46714;BME280;32445;51.376;10.874;2022-08-03T08:26:03;99492.13;;;23.83;39.02
46714;BME280;32445;51.376;10.874;2022-08-03T08:29:03;99491.72;;;23.99;38.65
46714;BME280;32445;51.376;10.874;2022-08-03T08:32:04;99490.69;;;24.11;38.24
46714;BME280;32445;51.376;10.874;2022-08-03T08:35:06;99477.72;;;24.29;37.19
46714;BME280;32445;51.376;10.874;2022-08-03T08:38:06;99484.25;;;24.46;37.62
46714;BME280;32445;51.376;10.874;2022-08-03T08:41:08;99485.03;;;24.58;37.24
46714;BME280;32445;51.376;10.874;2022-08-03T08:44:09;99483.06;;;24.72;36.73
46714;BME280;32445;51.376;10.874;2022-08-03T08:47:10;99479.47;;;24.82;37.03
46714;BME280;32445;51.376;10.874;2022-08-03T08:50:11;99479.84;;;24.99;35.84
46714;BME280;32445;51.376;10.874;2022-08-03T08:53:12;99492.75;;;25.13;35.67
46714;BME280;32445;51.376;10.874;2022-08-03T08:56:13;99477.41;;;25.27;35.41
46714;BME280;32445;51.376;10.874;2022-08-03T08:59:15;99477.19;;;25.39;34.69
46714;BME280;32445;51.376;10.874;2022-08-03T09:02:16;99484.22;;;25.60;35.42
46714;BME280;32445;51.376;10.874;2022-08-03T09:05:17;99477.09;;;25.80;34.29
46714;BME280;32445;51.376;10.874;2022-08-03T09:08:19;99474.16;;;25.93;34.19
46714;BME280;32445;51.376;10.874;2022-08-03T09:11:21;99478.13;;;26.08;33.95
46714;BME280;32445;51.376;10.874;2022-08-03T09:14:22;99475.91;;;26.23;33.10
46714;BME280;32445;51.376;10.874;2022-08-03T09:17:22;99469.69;;;26.42;33.13
46714;BME280;32445;51.376;10.874;2022-08-03T09:20:24;99475.09;;;26.60;33.47
46714;BME280;32445;51.376;10.874;2022-08-03T09:23:42;99480.25;;;26.82;32.99
46714;BME280;32445;51.376;10.874;2022-08-03T09:26:49;99481.44;;;27.07;32.92
46714;BME280;32445;51.376;10.874;2022-08-03T09:29:51;99474.88;;;27.29;32.44
46714;BME280;32445;51.376;10.874;2022-08-03T09:32:59;99473.50;;;27.53;32.13
46714;BME280;32445;51.376;10.874;2022-08-03T09:35:59;99474.88;;;27.75;31.95
46714;BME280;32445;51.376;10.874;2022-08-03T09:39:26;99464.06;;;27.94;32.09
46714;BME280;32445;51.376;10.874;2022-08-03T09:42:31;99451.13;;;28.18;32.04
46714;BME280;32445;51.376;10.874;2022-08-03T09:45:35;99455.22;;;28.30;31.30
46714;BME280;32445;51.376;10.874;2022-08-03T09:48:36;99456.63;;;28.42;30.64
46714;BME280;32445;51.376;10.874;2022-08-03T09:51:36;99451.03;;;28.54;30.85
46714;BME280;32445;51.376;10.874;2022-08-03T09:54:37;99453.13;;;28.68;31.10
46714;BME280;32445;51.376;10.874;2022-08-03T09:57:37;99443.88;;;28.80;31.66
46714;BME280;32445;51.376;10.874;2022-08-03T10:01:07;99441.41;;;28.95;31.18
46714;BME280;32445;51.376;10.874;2022-08-03T10:04:11;99442.00;;;29.15;30.03
46714;BME280;32445;51.376;10.874;2022-08-03T10:07:13;99435.88;;;29.31;29.25
46714;BME280;32445;51.376;10.874;2022-08-03T10:10:14;99443.63;;;29.51;29.09
46714;BME280;32445;51.376;10.874;2022-08-03T10:13:16;99438.16;;;29.69;29.39
46714;BME280;32445;51.376;10.874;2022-08-03T10:16:17;99435.00;;;29.90;28.74
46714;BME280;32445;51.376;10.874;2022-08-03T10:19:17;99436.19;;;30.12;30.00
46714;BME280;32445;51.376;10.874;2022-08-03T10:22:21;99430.63;;;30.30;27.40
46714;BME280;32445;51.376;10.874;2022-08-03T10:25:22;99426.28;;;30.46;27.54
46714;BME280;32445;51.376;10.874;2022-08-03T10:28:23;99420.72;;;30.64;26.54
46714;BME280;32445;51.376;10.874;2022-08-03T10:31:24;99426.34;;;30.85;27.89
46714;BME280;32445;51.376;10.874;2022-08-03T10:34:28;99431.78;;;31.09;26.97
46714;BME280;32445;51.376;10.874;2022-08-03T10:37:43;99423.00;;;31.23;27.42
46714;BME280;32445;51.376;10.874;2022-08-03T10:40:44;99418.19;;;31.42;26.44
46714;BME280;32445;51.376;10.874;2022-08-03T10:43:49;99417.44;;;31.56;26.01
46714;BME280;32445;51.376;10.874;2022-08-03T10:46:50;99427.53;;;31.77;25.66
46714;BME280;32445;51.376;10.874;2022-08-03T10:49:52;99421.75;;;31.88;25.67
46714;BME280;32445;51.376;10.874;2022-08-03T10:53:03;99407.22;;;31.98;25.67
46714;BME280;32445;51.376;10.874;2022-08-03T11:00:03;99403.19;;;32.40;24.87
46714;BME280;32445;51.376;10.874;2022-08-03T11:03:12;99409.66;;;32.60;24.48
46714;BME280;32445;51.376;10.874;2022-08-03T11:09:18;99408.88;;;33.11;23.78
46714;BME280;32445;51.376;10.874;2022-08-03T11:12:29;99405.97;;;33.28;23.24
46714;BME280;32445;51.376;10.874;2022-08-03T11:15:32;99401.66;;;33.49;23.16
46714;BME280;32445;51.376;10.874;2022-08-03T11:18:33;99399.28;;;33.82;23.51
46714;BME280;32445;51.376;10.874;2022-08-03T11:28:28;99399.72;;;34.71;23.42
46714;BME280;32445;51.376;10.874;2022-08-03T11:34:31;99389.00;;;35.53;21.41
46714;BME280;32445;51.376;10.874;2022-08-03T11:37:32;99381.16;;;35.84;22.33
46714;BME280;32445;51.376;10.874;2022-08-03T11:40:49;99389.03;;;36.19;20.96
46714;BME280;32445;51.376;10.874;2022-08-03T11:43:50;99380.66;;;36.48;20.11
46714;BME280;32445;51.376;10.874;2022-08-03T11:46:50;99384.13;;;36.68;19.32
46714;BME280;32445;51.376;10.874;2022-08-03T11:49:55;99375.13;;;36.88;19.08
46714;BME280;32445;51.376;10.874;2022-08-03T11:52:58;99378.94;;;37.19;20.52
46714;BME280;32445;51.376;10.874;2022-08-03T11:56:00;99377.88;;;37.59;19.37
46714;BME280;32445;51.376;10.874;2022-08-03T11:59:00;99381.13;;;37.67;18.51
46714;BME280;32445;51.376;10.874;2022-08-03T12:02:12;99366.22;;;37.83;18.75
46714;BME280;32445;51.376;10.874;2022-08-03T12:05:15;99369.56;;;38.04;18.21
46714;BME280;32445;51.376;10.874;2022-08-03T12:08:29;99361.97;;;38.13;18.51
46714;BME280;32445;51.376;10.874;2022-08-03T12:11:30;99359.75;;;38.47;18.54
46714;BME280;32445;51.376;10.874;2022-08-03T12:14:30;99366.75;;;38.36;18.84
46714;BME280;32445;51.376;10.874;2022-08-03T12:17:37;99363.38;;;38.59;18.63
46714;BME280;32445;51.376;10.874;2022-08-03T12:20:38;99367.63;;;38.73;17.99
46714;BME280;32445;51.376;10.874;2022-08-03T12:23:39;99363.66;;;38.88;17.62
46714;BME280;32445;51.376;10.874;2022-08-03T12:26:48;99360.28;;;39.04;17.32
46714;BME280;32445;51.376;10.874;2022-08-03T12:29:53;99367.13;;;39.25;17.55
46714;BME280;32445;51.376;10.874;2022-08-03T12:32:54;99363.84;;;39.35;17.07
46714;BME280;32445;51.376;10.874;2022-08-03T12:39:05;99343.75;;;39.67;16.70
46714;BME280;32445;51.376;10.874;2022-08-03T12:42:06;99351.03;;;39.66;16.80
46714;BME280;32445;51.376;10.874;2022-08-03T12:45:33;99341.50;;;39.75;17.72
46714;BME280;32445;51.376;10.874;2022-08-03T12:48:33;99339.59;;;40.00;17.18
46714;BME280;32445;51.376;10.874;2022-08-03T12:54:42;99340.16;;;40.49;17.18
46714;BME280;32445;51.376;10.874;2022-08-03T12:57:43;99335.38;;;40.68;16.24
46714;BME280;32445;51.376;10.874;2022-08-03T13:00:54;99334.97;;;40.76;16.79
46714;BME280;32445;51.376;10.874;2022-08-03T13:03:54;99331.50;;;40.93;16.50
46714;BME280;32445;51.376;10.874;2022-08-03T13:07:02;99333.19;;;41.11;16.42
46714;BME280;32445;51.376;10.874;2022-08-03T13:10:03;99327.47;;;41.12;15.06
46714;BME280;32445;51.376;10.874;2022-08-03T13:13:04;99319.75;;;41.21;16.04
46714;BME280;32445;51.376;10.874;2022-08-03T13:16:05;99327.63;;;41.35;16.29
46714;BME280;32445;51.376;10.874;2022-08-03T13:19:06;99330.41;;;41.57;15.99
46714;BME280;32445;51.376;10.874;2022-08-03T13:22:11;99321.84;;;41.65;15.51
46714;BME280;32445;51.376;10.874;2022-08-03T13:25:12;99326.88;;;41.73;14.27
46714;BME280;32445;51.376;10.874;2022-08-03T13:28:13;99311.59;;;41.72;14.61
46714;BME280;32445;51.376;10.874;2022-08-03T13:31:13;99328.28;;;41.59;14.72
46714;BME280;32445;51.376;10.874;2022-08-03T13:34:14;99318.44;;;41.75;14.70
46714;BME280;32445;51.376;10.874;2022-08-03T13:37:14;99317.72;;;41.79;15.12
46714;BME280;32445;51.376;10.874;2022-08-03T13:40:15;99326.13;;;41.95;15.00
46714;BME280;32445;51.376;10.874;2022-08-03T13:43:15;99317.56;;;42.08;15.57
46714;BME280;32445;51.376;10.874;2022-08-03T13:46:15;99314.56;;;42.27;14.61
46714;BME280;32445;51.376;10.874;2022-08-03T13:49:16;99303.53;;;42.39;14.38
46714;BME280;32445;51.376;10.874;2022-08-03T13:52:17;99303.44;;;42.56;15.78
46714;BME280;32445;51.376;10.874;2022-08-03T13:55:17;99300.97;;;42.76;14.61
46714;BME280;32445;51.376;10.874;2022-08-03T13:58:17;99299.03;;;42.77;13.47
46714;BME280;32445;51.376;10.874;2022-08-03T14:01:18;99297.81;;;42.90;15.13
46714;BME280;32445;51.376;10.874;2022-08-03T14:04:19;99297.97;;;42.78;13.77
46714;BME280;32445;51.376;10.874;2022-08-03T14:07:20;99299.25;;;42.70;13.58
46714;BME280;32445;51.376;10.874;2022-08-03T14:10:20;99301.00;;;42.81;13.77
46714;BME280;32445;51.376;10.874;2022-08-03T14:13:20;99298.63;;;42.90;14.77
46714;BME280;32445;51.376;10.874;2022-08-03T14:16:21;99294.34;;;42.99;13.65
46714;BME280;32445;51.376;10.874;2022-08-03T14:19:21;99291.38;;;43.01;15.21
46714;BME280;32445;51.376;10.874;2022-08-03T14:22:22;99288.81;;;43.16;14.39
46714;BME280;32445;51.376;10.874;2022-08-03T14:25:22;99285.66;;;43.35;14.15
46714;BME280;32445;51.376;10.874;2022-08-03T14:28:23;99285.75;;;43.45;12.94
46714;BME280;32445;51.376;10.874;2022-08-03T14:31:23;99285.41;;;43.42;13.16
46714;BME280;32445;51.376;10.874;2022-08-03T14:34:25;99286.97;;;43.27;13.84
46714;BME280;32445;51.376;10.874;2022-08-03T14:37:25;99288.94;;;43.37;13.40
46714;BME280;32445;51.376;10.874;2022-08-03T14:40:26;99276.97;;;43.43;14.72
46714;BME280;32445;51.376;10.874;2022-08-03T14:43:26;99280.94;;;43.58;13.25
46714;BME280;32445;51.376;10.874;2022-08-03T14:46:26;99277.22;;;43.42;12.20
46714;BME280;32445;51.376;10.874;2022-08-03T14:49:27;99280.16;;;43.30;13.52
46714;BME280;32445;51.376;10.874;2022-08-03T14:52:27;99277.69;;;43.28;13.04
46714;BME280;32445;51.376;10.874;2022-08-03T14:55:28;99279.22;;;43.14;12.99
46714;BME280;32445;51.376;10.874;2022-08-03T14:58:28;99270.41;;;43.07;14.06
46714;BME280;32445;51.376;10.874;2022-08-03T15:01:28;99264.16;;;43.11;13.62
46714;BME280;32445;51.376;10.874;2022-08-03T15:04:29;99260.03;;;43.03;13.84
46714;BME280;32445;51.376;10.874;2022-08-03T15:07:29;99259.22;;;43.08;13.89
46714;BME280;32445;51.376;10.874;2022-08-03T15:10:30;99259.56;;;43.17;13.23
46714;BME280;32445;51.376;10.874;2022-08-03T15:13:30;99258.75;;;43.16;13.53
46714;BME280;32445;51.376;10.874;2022-08-03T15:16:30;99248.44;;;43.24;14.40
46714;BME280;32445;51.376;10.874;2022-08-03T15:19:31;99241.13;;;43.34;15.35
46714;BME280;32445;51.376;10.874;2022-08-03T15:22:31;99239.31;;;43.45;12.89
46714;BME280;32445;51.376;10.874;2022-08-03T15:25:32;99244.38;;;43.26;12.98
46714;BME280;32445;51.376;10.874;2022-08-03T15:28:33;99241.38;;;43.28;13.93
46714;BME280;32445;51.376;10.874;2022-08-03T15:31:33;99237.50;;;43.24;13.28
46714;BME280;32445;51.376;10.874;2022-08-03T15:34:34;99235.31;;;43.26;12.75
46714;BME280;32445;51.376;10.874;2022-08-03T15:37:34;99233.66;;;43.19;13.42
46714;BME280;32445;51.376;10.874;2022-08-03T15:40:34;99238.59;;;43.22;13.79
46714;BME280;32445;51.376;10.874;2022-08-03T15:43:35;99237.25;;;43.25;13.57
46714;BME280;32445;51.376;10.874;2022-08-03T15:46:35;99244.38;;;43.26;12.98
46714;BME280;32445;51.376;10.874;2022-08-03T15:49:35;99233.31;;;43.11;13.59
46714;BME280;32445;51.376;10.874;2022-08-03T15:52:36;99225.69;;;43.13;13.68
46714;BME280;32445;51.376;10.874;2022-08-03T15:55:37;99223.00;;;43.18;13.94
46714;BME280;32445;51.376;10.874;2022-08-03T15:58:37;99230.41;;;43.22;13.32
46714;BME280;32445;51.376;10.874;2022-08-03T16:01:38;99229.84;;;43.20;12.90
46714;BME280;32445;51.376;10.874;2022-08-03T16:04:39;99223.81;;;43.18;13.94
46714;BME280;32445;51.376;10.874;2022-08-03T16:07:39;99229.84;;;43.20;13.97
46714;BME280;32445;51.376;10.874;2022-08-03T16:10:46;99221.66;;;43.26;14.14
46714;BME280;32445;51.376;10.874;2022-08-03T16:13:47;99213.22;;;43.27;13.67
46714;BME280;32445;51.376;10.874;2022-08-03T16:16:47;99229.00;;;43.20;13.13
46714;BME280;32445;51.376;10.874;2022-08-03T16:19:48;99222.13;;;43.12;13.30
46714;BME280;32445;51.376;10.874;2022-08-03T16:22:48;99214.22;;;43.11;14.55
46714;BME280;32445;51.376;10.874;2022-08-03T16:25:49;99217.19;;;43.09;14.44
46714;BME280;32445;51.376;10.874;2022-08-03T16:28:49;99217.19;;;43.09;14.69
46714;BME280;32445;51.376;10.874;2022-08-03T16:31:50;99222.34;;;43.06;13.64